Time;durP1;ratioP1;P1;durP2;ratioP2;P2;SDS_P1;SDS_P2;PMS_P1;PMS_P2;Temp;Humidity;BMP_temperature;BMP_pressure;BME280_temperature;BME280_humidity;BME280_pressure;Samples;Min_cycle;Max_cycle;Signal;HPM_P1;HPM_P2
2023/01/21 00:00:58;;;;;;;14.10;8.40;;;;;;;-0.71;90.09;98416.31;86376;1314;22847;-76
2023/01/21 00:04:00;;;;;;;8.70;7.60;;;;;;;-0.70;90.05;98412.34;86838;1308;22823;-76
2023/01/21 00:06:51;;;;;;;;;;;;;;;;;;;;;
2023/01/21 00:12:54;;;;;;;12.30;7.60;;;;;;;-0.69;90.15;98410.60;87423;1300;25463;-74
2023/01/21 00:15:55;;;;;;;10.20;7.90;;;;;;;-0.69;90.08;98410.06;87766;1295;22676;-76
2023/01/21 00:18:49;;;;;;;8.40;7.20;;;;;;;-0.69;90.15;98413.02;87524;1295;22520;-77
2023/01/21 00:21:50;;;;;;;8.10;6.90;;;;;;;-0.69;90.16;98416.80;87374;1286;23192;-77
2023/01/21 00:24:41;;;;;;;;;;;;;;;;;;;;;
2023/01/21 00:27:43;;;;;;;7.40;6.70;;;;;;;-0.68;90.01;98415.07;87347;1298;22557;-79
2023/01/21 00:30:45;;;;;;;9.90;7.70;;;;;;;-0.67;90.05;98415.92;87433;1300;22573;-77
2023/01/21 00:34:13;;;;;;;9.40;7.40;;;;;;;-0.67;89.99;98416.61;88580;1286;22852;-76
2023/01/21 00:37:03;;;;;;;8.90;6.90;;;;;;;-0.67;90.24;98413.17;89000;1281;25284;-78
2023/01/21 00:40:05;;;;;;;8.10;7.10;;;;;;;-0.65;90.07;98418.67;88765;1281;22542;-77
2023/01/21 00:43:10;;;;;;;10.60;7.50;;;;;;;-0.66;90.02;98419.02;88459;1280;22962;-77
2023/01/21 00:46:23;;;;;;;;;;;;;;;;;;;;;
2023/01/21 00:52:20;;;;;;;9.00;7.60;;;;;;;-0.64;90.24;98418.65;88661;1286;22679;-79
2023/01/21 00:55:26;;;;;;;10.50;7.90;;;;;;;-0.61;90.13;98422.23;88599;1283;23018;-78
2023/01/21 00:58:28;;;;;;;11.40;8.00;;;;;;;-0.60;90.24;98425.33;88758;1278;26033;-79
2023/01/21 01:01:43;;;;;;;;;;;;;;;;;;;;;
2023/01/21 01:07:46;;;;;;;12.50;8.40;;;;;;;-0.58;90.32;98443.94;89108;1274;22526;-77
2023/01/21 01:11:00;;;;;;;11.90;8.10;;;;;;;-0.58;90.22;98445.83;88497;1274;98045;-77
2023/01/21 01:14:04;;;;;;;10.60;7.80;;;;;;;-0.57;90.27;98445.83;87962;1295;24243;-76
2023/01/21 01:17:06;;;;;;;10.40;7.90;;;;;;;-0.57;90.32;98445.65;87887;1295;99074;-76
2023/01/21 01:20:08;;;;;;;10.90;7.60;;;;;;;-0.58;90.22;98442.73;88092;1290;23787;-77
2023/01/21 01:23:18;;;;;;;;;;;;;;;;;;;;;
2023/01/21 01:26:09;;;;;;;10.40;7.40;;;;;;;-0.61;90.08;98426.88;87512;1301;22618;-77
2023/01/21 01:29:36;;;;;;;14.60;7.90;;;;;;;-0.63;90.26;98424.15;87485;1301;98351;-77
2023/01/21 01:32:13;;;;;;;8.10;7.20;;;;;;;-0.60;90.01;98423.61;87549;1302;25332;-76
2023/01/21 01:35:14;;;;;;;7.10;6.50;;;;;;;-0.61;90.06;98429.64;87027;1309;98287;-75
2023/01/21 01:38:20;;;;;;;;;;;;;;;;;;;;;
2023/01/21 01:44:56;;;;;;;7.30;6.50;;;;;;;-0.57;90.14;98419.93;87433;1300;557269;-76
2023/01/21 01:54:06;;;;;;;7.90;6.20;;;;;;;-0.59;90.13;98404.43;88988;1274;96878;-75
2023/01/21 01:57:09;;;;;;;7.50;5.60;;;;;;;-0.60;90.20;98395.63;89335;1267;24386;-75
2023/01/21 02:00:12;;;;;;;6.10;5.50;;;;;;;-0.60;90.16;98387.89;84811;1280;98051;-75
2023/01/21 02:05:58;;;;;;;;;;;;;;;-0.62;90.07;98384.80;89030;1278;98912;-76
2023/01/21 02:09:02;;;;;;;5.80;5.10;;;;;;;-0.64;90.19;98387.76;89109;1279;22912;-76
2023/01/21 02:12:14;;;;;;;5.90;5.30;;;;;;;-0.66;90.21;98392.79;88940;1278;98222;-77
2023/01/21 02:15:42;;;;;;;5.40;5.00;;;;;;;-0.67;90.23;98386.25;89247;1279;24437;-76
2023/01/21 02:18:21;;;;;;;6.60;5.90;;;;;;;-0.68;90.10;98385.23;88970;1278;97859;-76
2023/01/21 02:21:38;;;;;;;6.50;5.40;;;;;;;-0.72;90.09;98379.41;89279;1260;22561;-77
2023/01/21 02:24:39;;;;;;;6.00;5.40;;;;;;;-0.69;90.24;98390.77;89131;1277;97663;-76
2023/01/21 02:31:04;;;;;;;6.20;5.70;;;;;;;-0.70;90.27;98394.39;88929;1284;97252;-77
2023/01/21 02:34:18;;;;;;;6.60;5.40;;;;;;;-0.70;90.14;98395.27;88892;1279;26579;-77
2023/01/21 02:50:29;;;;;;;5.10;4.70;;;;;;;-0.72;90.24;98387.86;88959;1287;23724;-78
2023/01/21 03:02:03;;;;;;;5.00;4.50;;;;;;;-0.72;90.20;98385.09;91427;1264;22317;-79
2023/01/21 03:08:20;;;;;;;4.20;3.80;;;;;;;-0.72;90.19;98386.82;91290;1267;22391;-78
2023/01/21 03:11:38;;;;;;;4.00;3.70;;;;;;;-0.74;90.16;98377.19;91195;1277;97741;-78
2023/01/21 03:17:46;;;;;;;4.10;3.70;;;;;;;-0.76;90.17;98375.14;91181;1272;97166;-78
2023/01/21 03:42:27;;;;;;;;;;;;;;;;;;;;;
2023/01/21 04:09:34;;;;;;;5.30;4.80;;;;;;;-0.75;89.96;98375.83;91026;1270;89766;-84
2023/01/21 04:11:37;;;;;;;5.10;4.60;;;;;;;-0.77;90.03;98377.40;90932;1281;97437;-85
2023/01/21 04:13:42;;;;;;;4.50;3.90;;;;;;;-0.73;90.08;98382.19;91175;1278;22214;-84
2023/01/21 04:15:44;;;;;;;4.60;4.20;;;;;;;-0.74;89.89;98384.27;91104;1279;22036;-84
2023/01/21 04:17:46;;;;;;;4.50;4.10;;;;;;;-0.74;89.96;98377.20;91020;1278;97439;-84
2023/01/21 04:19:48;;;;;;;6.00;4.60;;;;;;;-0.73;90.05;98373.73;91148;1282;22355;-84
2023/01/21 04:21:53;;;;;;;4.90;4.50;;;;;;;-0.72;90.04;98375.79;91145;1274;22068;-84
2023/01/21 04:23:55;;;;;;;4.30;3.70;;;;;;;-0.84;90.05;98354.20;90903;1280;97223;-83
2023/01/21 04:25:57;;;;;;;4.60;4.20;;;;;;;-0.74;89.97;98374.94;91073;1278;22389;-83
2023/01/21 04:27:59;;;;;;;4.60;4.20;;;;;;;-0.74;89.99;98374.95;91136;1278;22239;-82
2023/01/21 04:30:01;;;;;;;4.30;3.90;;;;;;;-0.74;90.01;98373.38;90937;1278;97863;-81
2023/01/21 04:32:03;;;;;;;4.70;3.80;;;;;;;-0.73;90.03;98372.52;91175;1277;22317;-82
2023/01/21 04:34:05;;;;;;;5.00;3.80;;;;;;;-0.73;90.00;98373.56;91118;1276;22332;-82
2023/01/21 04:36:07;;;;;;;3.80;3.50;;;;;;;-0.73;89.92;98374.24;90935;1272;97609;-83
2023/01/21 04:38:09;;;;;;;3.90;3.60;;;;;;;-0.71;89.86;98372.84;91098;1280;22271;-82
2023/01/21 04:40:11;;;;;;;5.40;3.50;;;;;;;-0.72;89.84;98368.20;91055;1277;97793;-84
2023/01/21 04:42:13;;;;;;;5.30;4.40;;;;;;;-0.74;89.92;98362.88;91037;1277;97535;-83
2023/01/21 04:44:15;;;;;;;4.30;3.90;;;;;;;-0.74;89.77;98363.05;91158;1276;23065;-83
2023/01/21 04:46:16;;;;;;;5.10;4.00;;;;;;;-0.74;89.98;98358.05;91024;1279;97966;-82
2023/01/21 04:48:18;;;;;;;4.50;4.20;;;;;;;-0.75;89.93;98351.33;91126;1276;97423;-83
2023/01/21 04:50:21;;;;;;;4.20;3.80;;;;;;;-0.76;89.96;98353.58;91105;1278;22254;-83
2023/01/21 04:52:23;;;;;;;4.10;3.80;;;;;;;-0.77;89.93;98354.63;90959;1280;97451;-83
2023/01/21 04:54:24;;;;;;;4.40;3.90;;;;;;;-0.76;90.01;98357.38;91059;1276;97444;-83
2023/01/21 04:56:26;;;;;;;4.00;3.70;;;;;;;-0.77;89.88;98361.52;91147;1277;22897;-83
2023/01/21 04:58:28;;;;;;;6.20;4.10;;;;;;;-0.76;89.97;98364.78;91143;1275;97737;-83
2023/01/21 05:00:29;;;;;;;3.80;3.50;;;;;;;-0.76;89.99;98367.04;91058;1276;98332;-83
2023/01/21 05:02:32;;;;;;;3.90;3.60;;;;;;;-0.76;90.02;98366.00;91152;1277;22193;-83
2023/01/21 05:04:35;;;;;;;4.20;3.90;;;;;;;-0.76;89.80;98362.55;91046;1276;97447;-82
2023/01/21 05:06:36;;;;;;;4.50;4.10;;;;;;;-0.76;89.88;98363.40;91093;1276;97645;-82
2023/01/21 05:08:38;;;;;;;4.30;4.00;;;;;;;-0.76;89.94;98363.41;91067;1280;22312;-84
2023/01/21 05:10:40;;;;;;;4.10;3.80;;;;;;;-0.76;89.96;98361.34;90967;1279;97488;-83
2023/01/21 05:12:42;;;;;;;3.70;3.40;;;;;;;-0.76;89.97;98358.23;90957;1279;97446;-83
2023/01/21 05:14:44;;;;;;;4.30;3.90;;;;;;;-0.77;89.88;98354.64;91141;1281;22316;-83
2023/01/21 05:16:46;;;;;;;3.90;3.60;;;;;;;-0.77;89.90;98363.23;91107;1276;97356;-83
2023/01/21 05:18:48;;;;;;;3.40;3.20;;;;;;;-0.77;89.94;98364.29;91036;1278;97337;-83
2023/01/21 05:20:49;;;;;;;3.90;3.60;;;;;;;-0.77;89.95;98364.14;91119;1280;22967;-83
2023/01/21 05:22:51;;;;;;;4.50;4.10;;;;;;;-0.78;89.77;98363.09;91095;1270;97359;-83
2023/01/21 05:24:54;;;;;;;3.80;3.50;;;;;;;-0.78;89.95;98360.85;90939;1280;97564;-84
2023/01/21 05:26:56;;;;;;;4.10;3.80;;;;;;;-0.78;89.91;98362.06;91093;1270;22296;-84
2023/01/21 05:28:58;;;;;;;4.30;4.00;;;;;;;-0.78;89.93;98359.48;90964;1274;97431;-83
2023/01/21 05:31:02;;;;;;;3.80;3.50;;;;;;;-0.78;89.94;98362.58;91061;1279;98012;-83
2023/01/21 05:33:04;;;;;;;4.20;3.60;;;;;;;-0.79;89.84;98361.73;91114;1277;22159;-82
2023/01/21 05:35:06;;;;;;;4.60;4.20;;;;;;;-0.80;89.80;98361.21;91050;1278;97748;-84
2023/01/21 05:37:11;;;;;;;4.50;4.20;;;;;;;-0.79;89.97;98362.41;91017;1276;97389;-84
2023/01/21 05:39:13;;;;;;;5.30;4.30;;;;;;;-0.79;89.96;98367.25;91061;1263;22336;-83
2023/01/21 05:41:14;;;;;;;4.60;4.20;;;;;;;-0.80;89.88;98366.22;91044;1273;97367;-84
2023/01/21 05:43:16;;;;;;;6.10;4.90;;;;;;;-0.80;90.03;98369.49;91007;1279;97462;-84
2023/01/21 05:45:18;;;;;;;5.00;4.60;;;;;;;-0.81;89.84;98365.53;91123;1270;22269;-83
2023/01/21 05:47:20;;;;;;;4.60;4.00;;;;;;;-0.92;89.96;98350.34;91047;1282;98147;-83
2023/01/21 05:49:22;;;;;;;4.70;4.20;;;;;;;-0.84;89.78;98361.11;91003;1277;97268;-83
2023/01/21 05:51:24;;;;;;;4.80;4.40;;;;;;;-0.81;89.86;98367.10;91144;1277;22318;-82
2023/01/21 05:53:26;;;;;;;3.90;3.60;;;;;;;-0.81;89.89;98366.41;90995;1280;97597;-83
2023/01/21 05:55:28;;;;;;;4.70;4.30;;;;;;;-0.81;89.83;98369.86;91104;1277;22244;-82
2023/01/21 05:57:40;;;;;;;4.90;4.30;;;;;;;-0.82;89.85;98367.63;91126;1270;22325;-83
2023/01/21 05:59:42;;;;;;;8.30;4.60;;;;;;;-0.81;89.79;98367.63;90935;1279;99814;-82
2023/01/21 06:01:44;;;;;;;5.10;4.40;;;;;;;-0.82;90.06;98366.08;91089;1280;22191;-82
2023/01/21 06:03:46;;;;;;;5.70;4.30;;;;;;;-0.82;89.70;98362.96;91061;1279;22313;-82
2023/01/21 06:05:49;;;;;;;6.50;4.20;;;;;;;-0.83;89.72;98364.88;90888;1278;98937;-83
2023/01/21 06:07:51;;;;;;;6.20;4.50;;;;;;;-0.85;89.84;98366.46;91142;1276;22176;-82
2023/01/21 06:09:53;;;;;;;5.20;4.70;;;;;;;-0.82;89.82;98371.77;91099;1278;22361;-82
2023/01/21 06:11:55;;;;;;;5.00;3.70;;;;;;;-0.82;89.80;98375.91;90961;1277;98007;-82
2023/01/21 06:13:56;;;;;;;4.70;4.30;;;;;;;-0.84;89.81;98373.34;91111;1276;22312;-83
2023/01/21 06:15:58;;;;;;;4.30;4.00;;;;;;;-0.82;89.93;98375.40;91242;1274;22328;-83
2023/01/21 06:18:00;;;;;;;4.80;4.30;;;;;;;-0.82;89.87;98374.52;90935;1279;98186;-83
2023/01/21 06:20:03;;;;;;;4.00;3.70;;;;;;;-0.81;89.79;98376.92;91150;1277;22250;-83
2023/01/21 06:22:05;;;;;;;4.70;4.10;;;;;;;-0.81;89.81;98380.03;91207;1279;22245;-83
2023/01/21 06:24:07;;;;;;;4.10;3.80;;;;;;;-0.81;89.88;98382.62;90974;1263;97574;-83
2023/01/21 06:26:09;;;;;;;4.50;4.10;;;;;;;-0.80;89.83;98387.10;91100;1274;22247;-83
2023/01/21 06:28:11;;;;;;;7.30;4.50;;;;;;;-0.80;89.86;98388.65;91098;1278;22192;-82
2023/01/21 06:30:13;;;;;;;4.40;4.00;;;;;;;-0.79;89.86;98390.54;91034;1277;98156;-81
2023/01/21 06:32:15;;;;;;;4.70;4.00;;;;;;;-0.79;89.78;98390.36;91115;1278;22790;-81
2023/01/21 06:34:17;;;;;;;5.80;3.80;;;;;;;-0.80;89.85;98393.81;91053;1269;98801;-81
2023/01/21 06:36:19;;;;;;;5.60;3.80;;;;;;;-0.80;89.79;98392.27;91029;1276;97469;-81
2023/01/21 06:38:20;;;;;;;4.20;3.80;;;;;;;-0.80;89.65;98394.50;91142;1270;22198;-82
2023/01/21 06:40:22;;;;;;;5.30;4.10;;;;;;;-0.79;89.79;98397.61;90949;1279;97931;-80
2023/01/21 06:42:24;;;;;;;4.50;4.20;;;;;;;-0.79;89.75;98397.60;91002;1278;97477;-82
2023/01/21 06:44:26;;;;;;;4.10;3.80;;;;;;;-0.78;89.89;98398.45;91243;1267;22898;-82
2023/01/21 06:46:28;;;;;;;3.80;3.50;;;;;;;-0.78;89.91;98400.70;91059;1276;98388;-84
2023/01/21 06:48:30;;;;;;;4.80;4.40;;;;;;;-0.77;89.88;98404.33;91102;1276;97670;-83
2023/01/21 06:50:32;;;;;;;4.90;4.40;;;;;;;-0.76;89.77;98406.36;91172;1277;22317;-83
2023/01/21 06:52:34;;;;;;;5.20;4.70;;;;;;;-0.76;89.88;98407.23;91025;1278;98228;-83
2023/01/21 06:54:36;;;;;;;4.10;3.80;;;;;;;-0.74;89.81;98409.11;91025;1280;97883;-84
2023/01/21 06:56:39;;;;;;;4.50;4.10;;;;;;;-0.74;89.84;98409.28;91148;1279;22253;-84
2023/01/21 06:58:41;;;;;;;6.80;3.80;;;;;;;-0.72;89.82;98414.09;90981;1276;97986;-83
2023/01/21 07:00:43;;;;;;;4.70;3.90;;;;;;;-0.71;89.80;98418.04;91048;1278;97417;-83
2023/01/21 07:02:45;;;;;;;4.20;3.80;;;;;;;-0.70;89.83;98421.30;91151;1277;22327;-83
2023/01/21 07:04:49;;;;;;;3.50;3.30;;;;;;;-0.68;89.84;98423.36;91081;1276;97908;-84
2023/01/21 07:06:52;;;;;;;6.40;4.30;;;;;;;-0.66;90.01;98425.92;91067;1275;97706;-82
2023/01/21 07:08:54;;;;;;;5.30;4.30;;;;;;;-0.65;89.79;98433.15;91124;1280;22376;-82
2023/01/21 07:10:56;;;;;;;5.20;4.60;;;;;;;-0.64;89.93;98430.89;91042;1277;98109;-82
2023/01/21 07:12:57;;;;;;;4.30;3.90;;;;;;;-0.62;89.84;98435.02;90995;1270;97500;-83
2023/01/21 07:14:59;;;;;;;6.10;3.70;;;;;;;-0.61;89.86;98440.00;91186;1276;22266;-82
2023/01/21 07:17:01;;;;;;;4.70;4.30;;;;;;;-0.61;89.93;98440.19;91049;1276;98448;-83
2023/01/21 07:19:03;;;;;;;4.70;4.30;;;;;;;-0.61;89.87;98442.77;90992;1280;98028;-82
2023/01/21 07:21:04;;;;;;;3.40;3.20;;;;;;;-0.57;89.78;98446.16;91156;1277;22166;-82
2023/01/21 07:23:06;;;;;;;4.60;4.30;;;;;;;-0.54;89.90;98449.41;91017;1279;97647;-85
2023/01/21 07:25:09;;;;;;;4.70;4.00;;;;;;;-0.54;90.06;98448.89;90998;1280;98067;-83
2023/01/21 07:27:10;;;;;;;6.70;4.10;;;;;;;-0.49;89.94;98450.73;91135;1278;22208;-81
2023/01/21 07:30:14;;;;;;;4.70;4.10;;;;;;;-0.47;89.84;98453.46;90958;1261;97946;-78
2023/01/21 07:33:06;;;;;;;;;;;;;;;;;;;;;
2023/01/21 07:36:09;;;;;;;5.20;4.10;;;;;;;-0.43;89.90;98459.98;90739;1284;97751;-78
2023/01/21 07:39:15;;;;;;;3.90;3.50;;;;;;;-0.41;89.86;98463.59;90863;1283;22772;-76
2023/01/21 07:44:44;;;;;;;;;;;;;;;;;;;;;
2023/01/21 07:48:57;;;;;;;3.80;3.50;;;;;;;-0.31;89.91;98470.88;90867;1272;97544;-84
2023/01/21 07:50:59;;;;;;;4.20;3.90;;;;;;;-0.29;89.97;98470.86;91071;1280;22219;-82
2023/01/21 07:53:01;;;;;;;4.20;3.90;;;;;;;-0.27;89.95;98474.45;90996;1271;97760;-83
2023/01/21 07:55:03;;;;;;;4.20;3.80;;;;;;;-0.25;89.78;98479.44;90907;1275;99345;-82
2023/01/21 07:57:04;;;;;;;4.30;4.00;;;;;;;-0.24;90.04;98474.23;90984;1280;22264;-82
2023/01/21 07:59:06;;;;;;;5.10;4.60;;;;;;;-0.23;89.89;98473.37;90894;1276;97751;-82
2023/01/21 08:01:08;;;;;;;4.10;3.60;;;;;;;-0.23;89.85;98477.86;90896;1279;98598;-82
2023/01/21 08:03:10;;;;;;;4.90;4.50;;;;;;;-0.22;89.99;98480.95;91035;1276;22348;-81
2023/01/21 08:05:12;;;;;;;4.10;3.80;;;;;;;-0.22;89.89;98481.47;90905;1280;98171;-83
2023/01/21 08:07:14;;;;;;;4.60;3.80;;;;;;;-0.21;89.94;98485.27;90952;1280;97914;-82
2023/01/21 08:09:15;;;;;;;4.60;4.30;;;;;;;-0.22;89.92;98481.65;91046;1279;22269;-82
2023/01/21 08:11:17;;;;;;;5.10;4.10;;;;;;;-0.21;90.00;98488.70;90981;1273;97580;-81
2023/01/21 08:13:19;;;;;;;6.30;3.60;;;;;;;-0.20;89.87;98493.02;90953;1278;97673;-82
2023/01/21 08:15:21;;;;;;;4.10;3.80;;;;;;;-0.20;90.00;98494.73;91070;1283;22194;-83
2023/01/21 08:17:22;;;;;;;7.90;4.20;;;;;;;-0.20;89.76;98493.53;90903;1280;97607;-83
2023/01/21 08:19:24;;;;;;;4.70;4.30;;;;;;;-0.19;89.82;98494.89;90981;1276;98286;-83
2023/01/21 08:21:26;;;;;;;5.70;4.80;;;;;;;-0.18;89.87;98494.88;91144;1278;22415;-85
2023/01/21 08:23:28;;;;;;;4.70;4.20;;;;;;;-0.17;89.83;98499.88;90834;1283;97725;-84
2023/01/21 08:25:29;;;;;;;4.40;3.90;;;;;;;-0.15;89.77;98504.18;90913;1279;97562;-85
2023/01/21 08:27:32;;;;;;;4.80;4.40;;;;;;;-0.13;90.01;98505.70;90956;1280;22381;-84
2023/01/21 08:29:34;;;;;;;5.20;4.80;;;;;;;-0.12;89.96;98504.83;90996;1271;97684;-85
2023/01/21 08:31:36;;;;;;;6.20;5.20;;;;;;;-0.10;89.97;98504.81;90886;1273;97915;-84
2023/01/21 08:33:38;;;;;;;5.90;5.40;;;;;;;-0.09;89.88;98502.20;90968;1280;22360;-83
2023/01/21 08:35:40;;;;;;;5.80;5.40;;;;;;;-0.09;90.02;98499.95;91042;1277;97532;-84
2023/01/21 08:37:42;;;;;;;6.00;5.50;;;;;;;-0.07;89.78;98502.52;90891;1279;97339;-85
2023/01/21 08:39:44;;;;;;;6.90;6.30;;;;;;;-0.06;90.20;98504.58;91007;1280;22451;-85
2023/01/21 08:41:45;;;;;;;7.30;5.80;;;;;;;-0.05;89.98;98505.09;90903;1275;98027;-84
2023/01/21 08:43:47;;;;;;;6.10;5.60;;;;;;;-0.04;89.94;98505.09;90963;1282;22275;-84
2023/01/21 08:45:49;;;;;;;15.40;6.00;;;;;;;-0.04;89.98;98506.98;91108;1278;22283;-84
2023/01/21 08:47:51;;;;;;;11.80;6.20;;;;;;;-0.03;89.87;98510.40;90872;1282;97807;-83
2023/01/21 08:49:53;;;;;;;8.00;6.50;;;;;;;-0.03;89.98;98511.10;91137;1277;22020;-84
2023/01/21 08:51:55;;;;;;;6.50;6.00;;;;;;;-0.02;89.97;98518.86;91019;1281;22202;-84
2023/01/21 08:53:57;;;;;;;6.70;5.90;;;;;;;-0.01;89.90;98520.07;90888;1280;98205;-85
2023/01/21 08:56:00;;;;;;;6.70;6.00;;;;;;;0.01;89.87;98524.88;91078;1282;22271;-85
2023/01/21 08:58:02;;;;;;;9.50;6.90;;;;;;;0.01;89.77;98527.98;91091;1270;22116;-85
2023/01/21 09:00:04;;;;;;;9.80;6.90;;;;;;;0.03;89.80;98531.23;90887;1279;98021;-84
2023/01/21 09:02:07;;;;;;;12.40;6.60;;;;;;;0.05;89.96;98533.10;91132;1275;22259;-84
2023/01/21 09:04:09;;;;;;;6.60;5.80;;;;;;;0.07;90.00;98536.70;91101;1278;22196;-85
2023/01/21 09:06:11;;;;;;;13.40;6.90;;;;;;;0.09;89.90;98542.55;90872;1285;97556;-84
2023/01/21 09:08:13;;;;;;;14.30;9.40;;;;;;;0.11;89.82;98544.25;90993;1280;22424;-83
2023/01/21 09:10:59;;;;;;;13.40;9.30;;;;;;;0.11;90.15;98548.40;91115;1277;22163;-82
2023/01/21 09:12:39;;;;;;;6.90;6.30;;;;;;;0.12;89.83;98549.95;91072;1280;97703;-82
2023/01/21 09:14:41;;;;;;;11.10;5.70;;;;;;;0.12;89.74;98552.70;91091;1277;22544;-81
2023/01/21 09:16:43;;;;;;;7.10;5.40;;;;;;;0.12;89.91;98547.52;90928;1280;97877;-82
2023/01/21 09:18:46;;;;;;;6.30;5.70;;;;;;;0.12;89.95;98548.23;91060;1277;97535;-82
2023/01/21 09:20:48;;;;;;;7.60;5.60;;;;;;;0.12;89.93;98549.08;91104;1281;23035;-82
2023/01/21 09:22:49;;;;;;;6.60;5.90;;;;;;;0.12;89.92;98550.96;91013;1276;98109;-82
2023/01/21 09:24:51;;;;;;;7.40;5.80;;;;;;;0.13;89.84;98550.10;90957;1280;97566;-83
2023/01/21 09:26:54;;;;;;;5.90;5.40;;;;;;;0.14;89.89;98551.82;91144;1284;22267;-83
2023/01/21 09:28:57;;;;;;;6.30;5.70;;;;;;;0.16;89.96;98556.80;91010;1283;97590;-83
2023/01/21 09:31:02;;;;;;;6.50;5.80;;;;;;;0.18;89.90;98559.04;90931;1274;98142;-83
2023/01/21 09:33:04;;;;;;;6.80;6.20;;;;;;;0.19;89.93;98561.26;91095;1280;22332;-83
2023/01/21 09:35:06;;;;;;;9.30;6.80;;;;;;;0.21;89.83;98562.98;90998;1279;97713;-83
2023/01/21 09:37:09;;;;;;;18.50;7.00;;;;;;;0.21;89.79;98565.55;91024;1279;97539;-83
2023/01/21 09:39:11;;;;;;;12.20;7.20;;;;;;;0.22;89.81;98565.89;91045;1280;22202;-84
2023/01/21 09:41:35;;;;;;;14.00;6.20;;;;;;;0.22;89.73;98567.61;90997;1279;98171;-84
2023/01/21 09:43:44;;;;;;;8.70;6.70;;;;;;;0.21;89.79;98568.84;91015;1280;97530;-85
2023/01/21 09:45:47;;;;;;;9.10;7.10;;;;;;;0.21;89.71;98568.99;91169;1278;22688;-83
2023/01/21 09:47:51;;;;;;;12.30;7.80;;;;;;;0.24;89.87;98566.38;90952;1280;98239;-82
2023/01/21 09:50:15;;;;;;;8.60;6.90;;;;;;;0.27;89.86;98564.61;91056;1280;22169;-83
2023/01/21 09:52:38;;;;;;;8.10;6.70;;;;;;;0.29;90.00;98565.63;91130;1279;22242;-84
2023/01/21 09:54:40;;;;;;;15.70;7.70;;;;;;;0.31;90.12;98561.96;91063;1280;98091;-84
2023/01/21 09:56:55;;;;;;;13.70;6.80;;;;;;;0.32;90.09;98566.79;91106;1280;22283;-84
2023/01/21 09:59:06;;;;;;;8.30;6.70;;;;;;;0.35;89.86;98570.02;91017;1270;97886;-82
2023/01/21 10:01:18;;;;;;;13.00;7.60;;;;;;;0.34;89.96;98571.95;91007;1279;97344;-83
2023/01/21 10:03:45;;;;;;;9.00;7.30;;;;;;;0.36;89.87;98574.52;91095;1280;22238;-82
2023/01/21 10:06:08;;;;;;;13.00;6.80;;;;;;;0.37;89.82;98577.44;90993;1277;98417;-83
2023/01/21 10:08:55;;;;;;;14.90;7.00;;;;;;;0.38;89.72;98586.41;91118;1273;22928;-83
2023/01/21 10:11:13;;;;;;;9.20;7.00;;;;;;;0.39;90.02;98585.36;90719;1286;97752;-83
2023/01/21 10:13:37;;;;;;;14.30;6.90;;;;;;;0.39;90.09;98589.52;90598;1286;97579;-83
2023/01/21 10:16:07;;;;;;;13.50;6.70;;;;;;;0.40;89.74;98586.39;90726;1285;22340;-84
2023/01/21 10:18:18;;;;;;;11.40;7.70;;;;;;;0.40;89.86;98587.08;90514;1292;98175;-84
2023/01/21 10:20:32;;;;;;;12.10;7.90;;;;;;;0.41;89.74;98588.95;90478;1285;22293;-84
2023/01/21 10:22:34;;;;;;;11.30;8.30;;;;;;;0.41;89.65;98587.91;90669;1279;97910;-85
2023/01/21 10:24:46;;;;;;;9.70;8.30;;;;;;;0.44;89.83;98585.98;90771;1285;98151;-85
2023/01/21 10:26:51;;;;;;;17.80;8.30;;;;;;;0.44;89.79;98583.55;90573;1289;22081;-85
2023/01/21 10:28:54;;;;;;;9.50;8.40;;;;;;;0.45;89.82;98579.06;90701;1286;97541;-85
2023/01/21 10:31:06;;;;;;;11.50;9.20;;;;;;;0.46;89.99;98581.81;90534;1285;97439;-85
2023/01/21 10:43:23;;;;;;;11.00;8.60;;;;;;;0.43;89.62;98576.15;90954;1268;98542;-87
2023/01/21 10:45:59;;;;;;;14.60;9.40;;;;;;;0.43;89.77;98575.45;91116;1278;22083;-87
2023/01/21 10:48:01;;;;;;;13.30;9.80;;;;;;;0.40;89.63;98572.55;90907;1278;98033;-87
2023/01/21 10:50:22;;;;;;;15.40;9.30;;;;;;;0.46;89.58;98576.96;91058;1277;22238;-86
2023/01/21 10:52:32;;;;;;;22.30;10.60;;;;;;;0.46;89.71;98579.21;91089;1276;22269;-86
2023/01/21 10:54:54;;;;;;;17.10;10.10;;;;;;;0.47;89.80;98576.95;90962;1270;97733;-86
2023/01/21 10:57:37;;;;;;;13.70;9.60;;;;;;;0.47;89.91;98577.12;91023;1280;22331;-82
2023/01/21 10:59:40;;;;;;;14.60;9.10;;;;;;;0.49;89.69;98579.16;90735;1282;97734;-81
2023/01/21 11:01:46;;;;;;;14.10;10.50;;;;;;;0.50;89.77;98582.80;90612;1285;97956;-81
2023/01/21 11:03:52;;;;;;;15.60;9.50;;;;;;;0.53;89.66;98584.13;90814;1282;22267;-80
2023/01/21 11:05:54;;;;;;;12.30;9.90;;;;;;;0.53;89.69;98584.48;90554;1285;97672;-79
2023/01/21 11:07:56;;;;;;;15.50;11.00;;;;;;;0.56;89.67;98582.02;90691;1277;23239;-79
2023/01/21 11:10:01;;;;;;;21.00;13.00;;;;;;;0.58;89.81;98581.29;90730;1283;22426;-80
2023/01/21 11:12:03;;;;;;;16.80;11.90;;;;;;;0.59;89.98;98583.36;90553;1270;99410;-80
2023/01/21 11:14:05;;;;;;;17.10;12.50;;;;;;;0.56;89.76;98576.66;90721;1282;22274;-80
2023/01/21 11:16:07;;;;;;;16.40;11.60;;;;;;;0.56;89.58;98578.91;90685;1283;22252;-79
2023/01/21 11:18:47;;;;;;;23.80;12.40;;;;;;;0.56;89.82;98583.58;90606;1282;99018;-78
2023/01/21 11:20:49;;;;;;;20.00;12.70;;;;;;;0.55;89.46;98585.49;90009;1291;22321;-78
2023/01/21 11:22:52;;;;;;;22.70;12.60;;;;;;;0.52;89.70;98589.86;89809;1292;98503;-79
2023/01/21 11:24:54;;;;;;;16.60;11.90;;;;;;;0.49;89.71;98588.84;90173;1289;98480;-78
2023/01/21 11:26:59;;;;;;;18.60;12.10;;;;;;;0.47;89.61;98593.20;89848;1290;23002;-79
2023/01/21 11:29:15;;;;;;;19.90;11.90;;;;;;;0.44;89.66;98591.33;90071;1282;98286;-78
2023/01/21 11:31:25;;;;;;;19.80;12.50;;;;;;;0.40;89.49;98593.13;89815;1286;97951;-78
2023/01/21 11:33:27;;;;;;;23.60;12.50;;;;;;;0.39;89.49;98592.80;90253;1291;22572;-78
2023/01/21 11:35:29;;;;;;;20.60;13.80;;;;;;;0.39;89.65;98591.23;90380;1289;98584;-78
2023/01/21 11:37:32;;;;;;;19.10;13.50;;;;;;;0.39;89.78;98590.90;90695;1286;98212;-79
2023/01/21 11:40:27;;;;;;;;;;;;;;;;;;;;;
2023/01/21 11:43:17;;;;;;;26.20;12.70;;;;;;;0.37;89.53;98585.22;90739;1282;97939;-77
2023/01/21 11:46:12;;;;;;;17.40;13.30;;;;;;;0.38;89.67;98581.40;90919;1281;22373;-80
2023/01/21 11:49:20;;;;;;;22.90;12.60;;;;;;;0.39;89.71;98581.04;90834;1282;97736;-80
2023/01/21 11:52:21;;;;;;;23.00;12.90;;;;;;;0.43;89.71;98582.20;89976;1290;22262;-79
2023/01/21 11:55:25;;;;;;;20.70;12.90;;;;;;;0.47;89.90;98583.86;89731;1292;97753;-77
2023/01/21 11:58:10;;;;;;;24.30;14.60;;;;;;;0.46;89.65;98593.56;89388;1298;22266;-77
2023/01/21 12:01:07;;;;;;;24.30;14.90;;;;;;;0.45;89.56;98592.88;88788;1303;99495;-77
2023/01/21 12:07:21;;;;;;;20.60;13.70;;;;;;;0.45;89.62;98596.34;88998;1305;97781;-76
2023/01/21 12:10:22;;;;;;;24.00;14.10;;;;;;;0.41;89.63;98598.12;88626;1312;22882;-75
2023/01/21 12:16:41;;;;;;;23.10;15.50;;;;;;;0.40;89.62;98601.43;88164;1316;22252;-76
2023/01/21 12:19:39;;;;;;;;;;;;;;;;;;;;;
2023/01/21 12:22:48;;;;;;;28.80;16.20;;;;;;;0.42;89.74;98604.16;88484;1312;23176;-78
2023/01/21 12:26:09;;;;;;;;;;;;;;;;;;;;;
2023/01/21 12:29:08;;;;;;;17.60;17.60;;;;;;;0.46;89.79;98604.80;88697;1305;22326;-77
2023/01/21 12:32:08;;;;;;;;;;;;;;;;;;;;;
2023/01/21 12:35:22;;;;;;;24.10;15.70;;;;;;;0.43;89.79;98620.20;88900;1304;22324;-77
2023/01/21 12:38:05;;;;;;;23.70;16.10;;;;;;;0.42;89.66;98622.13;89299;1296;97969;-77
2023/01/21 12:41:20;;;;;;;26.50;16.80;;;;;;;0.40;89.69;98622.67;89594;1295;22285;-76
2023/01/21 12:44:37;;;;;;;23.70;16.50;;;;;;;0.41;89.74;98639.25;88938;1303;97949;-77
2023/01/21 12:47:30;;;;;;;;;;;;;;;;;;;;;
2023/01/21 12:50:40;;;;;;;24.40;17.70;;;;;;;0.36;89.67;98648.14;88843;1295;97757;-77
2023/01/21 12:54:08;;;;;;;29.30;17.80;;;;;;;0.35;89.72;98650.91;89081;1301;22357;-77
2023/01/21 12:57:18;;;;;;;;;;;;;;;;;;;;;
2023/01/21 13:00:23;;;;;;;24.90;16.90;;;;;;;0.30;89.59;98657.19;89058;1301;98994;-77
2023/01/21 13:06:50;;;;;;;29.00;18.10;;;;;;;0.35;89.85;98663.02;89144;1300;97710;-77
2023/01/21 13:09:54;;;;;;;27.00;16.20;;;;;;;0.38;89.93;98670.25;89677;1295;22281;-78
2023/01/21 13:12:52;;;;;;;29.00;16.60;;;;;;;0.39;89.67;98682.50;89629;1295;98933;-78
2023/01/21 13:15:56;;;;;;;27.80;17.70;;;;;;;0.36;89.70;98682.88;89050;1303;22574;-78
2023/01/21 13:19:03;;;;;;;23.20;16.20;;;;;;;0.34;89.75;98689.45;89042;1298;98691;-80
2023/01/21 13:25:31;;;;;;;;;;;;;;;;;;;;;
2023/01/21 13:28:57;;;;;;;29.50;17.30;;;;;;;0.26;89.63;98704.23;90091;1292;22117;-81
2023/01/21 13:31:39;;;;;;;25.30;17.00;;;;;;;0.24;89.49;98705.31;89936;1289;98949;-80
2023/01/21 13:37:48;;;;;;;30.50;17.90;;;;;;;0.24;89.64;98715.15;90095;1291;98906;-81
2023/01/21 13:41:23;;;;;;;30.90;19.80;;;;;;;0.23;89.70;98718.79;90266;1290;22315;-78